createdAt,value
2022-12-13T00:00:26.385Z,31.54
2022-12-13T00:02:53.006Z,31.67
2022-12-13T00:05:19.297Z,33.01
2022-12-13T00:07:45.583Z,33.18
2022-12-13T00:10:11.841Z,33.50
2022-12-13T00:12:38.120Z,32.54
2022-12-13T00:15:04.397Z,31.60
2022-12-13T00:17:30.665Z,33.10
2022-12-13T00:19:56.945Z,33.45
2022-12-13T00:22:23.210Z,32.67
2022-12-13T00:24:49.502Z,33.23
2022-12-13T00:27:15.763Z,33.97
2022-12-13T00:29:42.052Z,33.13
2022-12-13T00:32:08.373Z,33.45
2022-12-13T00:34:34.686Z,33.34
2022-12-13T00:37:00.938Z,32.78
2022-12-13T00:39:27.191Z,34.27
2022-12-13T00:41:53.543Z,33.37
2022-12-13T00:44:19.921Z,33.48
2022-12-13T00:46:46.274Z,33.93
2022-12-13T00:49:12.637Z,33.81
2022-12-13T00:51:38.889Z,34.41
2022-12-13T00:54:05.170Z,34.71
2022-12-13T00:56:31.438Z,33.62
2022-12-13T00:58:57.721Z,34.51
2022-12-13T01:01:24.076Z,33.86
2022-12-13T01:03:50.362Z,34.33
2022-12-13T01:06:17.074Z,33.94
2022-12-13T01:08:43.597Z,34.79
2022-12-13T01:11:09.873Z,34.82
2022-12-13T01:13:36.145Z,34.94
2022-12-13T01:16:02.394Z,34.77
2022-12-13T01:18:28.652Z,36.37
2022-12-13T01:20:54.943Z,35.69
2022-12-13T01:23:21.222Z,36.27
2022-12-13T01:25:47.496Z,36.86
2022-12-13T01:28:13.858Z,38.00
2022-12-13T01:30:40.180Z,37.18
2022-12-13T01:33:13.962Z,35.73
2022-12-13T01:35:40.849Z,35.82
2022-12-13T01:38:15.414Z,36.86
2022-12-13T01:40:42.513Z,36.99
2022-12-13T01:43:13.948Z,36.19
2022-12-13T01:45:41.141Z,37.22
2022-12-13T01:48:07.443Z,37.96
2022-12-13T01:50:33.698Z,36.46
2022-12-13T01:53:00.297Z,35.33
2022-12-13T01:55:26.720Z,34.66
2022-12-13T01:57:53.013Z,36.53
2022-12-13T02:00:19.295Z,36.73
2022-12-13T02:02:45.574Z,38.03
2022-12-13T02:05:12.073Z,37.51
2022-12-13T02:07:38.505Z,36.62
2022-12-13T02:10:04.757Z,37.58
2022-12-13T02:12:31.016Z,38.25
2022-12-13T02:14:57.261Z,36.89
2022-12-13T02:17:27.081Z,37.24
2022-12-13T02:19:53.359Z,37.68
2022-12-13T02:22:19.624Z,36.28
2022-12-13T02:24:45.878Z,38.46
2022-12-13T02:27:12.246Z,38.96
2022-12-13T02:29:38.585Z,37.92
2022-12-13T02:32:04.864Z,37.41
2022-12-13T02:34:31.138Z,38.12
2022-12-13T02:37:00.393Z,38.09
2022-12-13T02:39:30.265Z,37.52
2022-12-13T02:41:57.185Z,37.88
2022-12-13T02:44:23.493Z,37.61
2022-12-13T02:46:49.781Z,37.71
2022-12-13T02:49:16.080Z,36.56
2022-12-13T02:51:42.351Z,37.29
2022-12-13T02:54:08.635Z,38.68
2022-12-13T02:56:34.927Z,38.33
2022-12-13T02:59:01.204Z,37.29
2022-12-13T03:01:28.705Z,38.02
2022-12-13T03:03:55.938Z,37.95
2022-12-13T03:06:34.168Z,38.76
2022-12-13T03:09:00.981Z,38.20
2022-12-13T03:11:27.289Z,38.33
2022-12-13T03:13:53.553Z,38.87
2022-12-13T03:16:22.874Z,37.58
2022-12-13T03:18:49.519Z,38.43
2022-12-13T03:21:16.529Z,37.69
2022-12-13T03:23:42.832Z,39.00
2022-12-13T03:26:09.112Z,38.80
2022-12-13T03:28:35.399Z,38.64
2022-12-13T03:31:01.733Z,37.97
2022-12-13T03:33:28.034Z,39.16
2022-12-13T03:35:54.396Z,39.59
2022-12-13T03:38:22.058Z,40.11
2022-12-13T03:40:49.584Z,39.45
2022-12-13T03:43:22.120Z,39.21
2022-12-13T03:45:49.013Z,38.69
2022-12-13T03:48:15.307Z,36.92
2022-12-13T03:50:49.431Z,37.29
2022-12-13T03:53:23.112Z,36.79
2022-12-13T03:56:01.096Z,35.77
2022-12-13T03:58:36.004Z,37.21
2022-12-13T04:01:03.461Z,36.67
2022-12-13T04:03:29.787Z,35.74
2022-12-13T04:05:56.080Z,36.43
2022-12-13T04:08:22.816Z,37.17
2022-12-13T04:10:49.107Z,38.39
2022-12-13T04:13:15.406Z,37.53
2022-12-13T04:15:41.697Z,37.88
2022-12-13T04:18:07.966Z,37.91
2022-12-13T04:20:34.248Z,36.92
2022-12-13T04:23:00.507Z,36.10
2022-12-13T04:25:26.801Z,37.50
2022-12-13T04:27:53.099Z,37.44
2022-12-13T04:30:19.393Z,36.34
2022-12-13T04:32:45.639Z,36.34
2022-12-13T04:35:11.886Z,35.14
2022-12-13T04:37:38.158Z,35.25
2022-12-13T04:40:04.410Z,36.41
2022-12-13T04:42:30.675Z,35.27
2022-12-13T04:44:56.926Z,35.44
2022-12-13T04:47:23.213Z,35.16
2022-12-13T04:49:49.484Z,34.49
2022-12-13T04:52:22.333Z,34.33
2022-12-13T04:54:49.083Z,35.30
2022-12-13T04:57:22.254Z,35.15
2022-12-13T04:59:48.915Z,33.75
2022-12-13T05:02:15.198Z,34.91
2022-12-13T05:04:53.761Z,36.62
2022-12-13T05:07:20.686Z,35.66
2022-12-13T05:09:46.972Z,34.95
2022-12-13T05:12:22.240Z,34.82
2022-12-13T05:14:49.624Z,35.66
2022-12-13T05:17:15.907Z,35.05
2022-12-13T05:19:42.177Z,36.43
2022-12-13T05:22:08.464Z,35.45
2022-12-13T05:24:34.719Z,34.97
2022-12-13T05:27:01.020Z,34.81
2022-12-13T05:29:27.285Z,34.87
2022-12-13T05:31:53.579Z,35.98
2022-12-13T05:34:19.874Z,35.60
2022-12-13T05:36:46.144Z,34.71
2022-12-13T05:39:27.842Z,35.81
2022-12-13T05:41:56.027Z,35.63
2022-12-13T05:44:28.438Z,34.71
2022-12-13T05:46:54.716Z,35.43
2022-12-13T05:49:20.968Z,34.34
2022-12-13T05:51:47.242Z,34.43
2022-12-13T05:54:13.537Z,33.58
2022-12-13T05:56:39.815Z,33.40
2022-12-13T05:59:06.086Z,34.98
2022-12-13T06:01:32.350Z,34.50
2022-12-13T06:03:58.661Z,35.26
2022-12-13T06:06:24.990Z,34.96
2022-12-13T06:08:51.313Z,34.05
2022-12-13T06:11:31.195Z,34.11
2022-12-13T06:14:00.585Z,34.39
2022-12-13T06:16:27.567Z,34.68
2022-12-13T06:19:02.788Z,34.23
2022-12-13T06:21:41.315Z,34.46
2022-12-13T06:24:11.874Z,36.86
2022-12-13T06:26:38.127Z,34.70
2022-12-13T06:29:04.394Z,34.88
2022-12-13T06:31:30.653Z,34.22
2022-12-13T06:33:56.927Z,34.11
2022-12-13T06:36:23.196Z,34.75
2022-12-13T06:38:49.469Z,36.23
2022-12-13T06:41:15.757Z,35.31
2022-12-13T06:43:42.004Z,36.27
2022-12-13T06:46:08.315Z,35.47
2022-12-13T06:48:35.539Z,35.26
2022-12-13T06:51:01.837Z,35.59
2022-12-13T06:53:28.090Z,35.99
2022-12-13T06:55:54.369Z,36.19
2022-12-13T06:58:20.629Z,37.71
2022-12-13T07:00:48.941Z,35.05
2022-12-13T07:03:15.656Z,36.18
2022-12-13T07:05:43.332Z,37.37
2022-12-13T07:08:09.820Z,38.08
2022-12-13T07:10:36.148Z,38.15
2022-12-13T07:13:02.410Z,37.84
2022-12-13T07:15:28.730Z,36.87
2022-12-13T07:17:55.041Z,37.28
2022-12-13T07:20:21.298Z,36.94
2022-12-13T07:22:50.157Z,35.78
2022-12-13T07:25:26.681Z,34.87
2022-12-13T07:27:55.007Z,36.08
2022-12-13T07:30:28.266Z,35.76
2022-12-13T07:32:54.630Z,34.44
2022-12-13T07:35:20.904Z,34.51
2022-12-13T07:37:47.164Z,34.42
2022-12-13T07:40:13.414Z,35.66
2022-12-13T07:42:39.686Z,34.45
2022-12-13T07:45:05.968Z,35.19
2022-12-13T07:47:32.252Z,36.62
2022-12-13T07:49:58.523Z,35.73
2022-12-13T07:52:24.774Z,36.41
2022-12-13T07:54:51.036Z,35.60
2022-12-13T07:57:17.292Z,36.84
2022-12-13T07:59:43.559Z,35.44
2022-12-13T08:02:09.881Z,37.50
2022-12-13T08:04:37.667Z,36.71
2022-12-13T08:07:04.563Z,36.06
2022-12-13T08:09:30.833Z,36.00
2022-12-13T08:11:57.112Z,36.55
2022-12-13T08:14:27.544Z,37.70
2022-12-13T08:16:53.873Z,38.00
2022-12-13T08:19:20.139Z,35.93
2022-12-13T08:21:55.640Z,37.21
2022-12-13T08:24:22.943Z,37.54
2022-12-13T08:26:49.235Z,36.08
2022-12-13T08:29:23.266Z,37.83
2022-12-13T08:32:01.147Z,39.48
2022-12-13T08:34:27.753Z,38.60
2022-12-13T08:36:54.019Z,38.39
2022-12-13T08:39:29.409Z,38.90
2022-12-13T08:41:55.666Z,41.20
2022-12-13T08:44:21.921Z,40.30
2022-12-13T08:46:48.233Z,40.17
2022-12-13T08:49:14.582Z,39.90
2022-12-13T08:51:40.882Z,42.03
2022-12-13T08:54:10.509Z,41.72
2022-12-13T08:56:37.782Z,40.05
2022-12-13T08:59:04.057Z,41.03
2022-12-13T09:01:30.330Z,41.28
2022-12-13T09:03:56.608Z,40.41
2022-12-13T09:06:23.000Z,41.66
2022-12-13T09:08:51.454Z,41.18
2022-12-13T09:11:23.880Z,41.16
2022-12-13T09:14:02.953Z,41.04
2022-12-13T09:16:29.392Z,41.08
2022-12-13T09:19:06.624Z,41.32
2022-12-13T09:21:48.450Z,39.69
2022-12-13T09:24:24.379Z,41.44
2022-12-13T09:26:51.172Z,40.55
2022-12-13T09:29:23.682Z,41.47
2022-12-13T09:31:53.323Z,40.91
2022-12-13T09:34:19.986Z,41.43
2022-12-13T09:36:46.334Z,41.29
2022-12-13T09:39:12.587Z,40.47
2022-12-13T09:41:41.065Z,40.07
2022-12-13T09:44:07.636Z,40.12
2022-12-13T09:46:53.903Z,39.85
2022-12-13T09:49:27.293Z,40.37
2022-12-13T09:52:11.315Z,41.88
2022-12-13T09:54:47.173Z,40.51
2022-12-13T09:57:14.404Z,39.39
2022-12-13T10:00:01.274Z,39.26
2022-12-13T10:02:28.181Z,37.82
2022-12-13T10:04:54.492Z,37.57
2022-12-13T10:07:27.455Z,38.05
2022-12-13T10:09:53.719Z,38.63
2022-12-13T10:12:20.001Z,38.67
2022-12-13T10:14:46.262Z,38.88
2022-12-13T10:17:13.305Z,37.60
2022-12-13T10:19:39.603Z,38.67
2022-12-13T10:22:05.871Z,38.29
2022-12-13T10:24:36.731Z,38.18
2022-12-13T10:27:03.783Z,39.43
2022-12-13T10:29:30.235Z,37.87
2022-12-13T10:31:56.574Z,37.46
2022-12-13T10:34:22.837Z,37.03
2022-12-13T10:36:49.109Z,35.81
2022-12-13T10:39:15.382Z,38.18
2022-12-13T10:41:41.678Z,36.37
2022-12-13T10:44:07.940Z,37.16
2022-12-13T10:46:38.318Z,35.71
2022-12-13T10:49:05.207Z,35.56
2022-12-13T10:51:31.463Z,35.46
2022-12-13T10:53:57.740Z,35.96
2022-12-13T10:56:24.114Z,36.15
2022-12-13T10:58:50.378Z,36.14
2022-12-13T11:01:18.096Z,36.80
2022-12-13T11:03:44.407Z,36.93
2022-12-13T11:06:10.679Z,37.88
2022-12-13T11:08:36.940Z,38.78
2022-12-13T11:11:03.199Z,39.53
2022-12-13T11:13:29.597Z,40.35
2022-12-13T11:15:55.874Z,38.96
2022-12-13T11:18:22.524Z,40.44
2022-12-13T11:20:54.102Z,40.02
2022-12-13T11:23:20.534Z,39.81
2022-12-13T11:25:46.812Z,39.68
2022-12-13T11:28:26.688Z,39.40
2022-12-13T11:31:01.604Z,40.25
2022-12-13T11:33:27.943Z,37.82
2022-12-13T11:35:54.225Z,38.66
2022-12-13T11:38:20.496Z,38.17
2022-12-13T11:40:46.767Z,37.96
2022-12-13T11:43:13.005Z,38.19
2022-12-13T11:45:39.424Z,37.61
2022-12-13T11:48:05.710Z,36.21
2022-12-13T11:50:33.254Z,37.22
2022-12-13T11:53:00.497Z,37.54
2022-12-13T11:55:27.433Z,36.12
2022-12-13T11:57:53.693Z,36.37
2022-12-13T12:00:33.847Z,34.29
2022-12-13T12:03:01.387Z,34.00
2022-12-13T12:05:27.755Z,33.31
2022-12-13T12:08:31.146Z,34.07
2022-12-13T12:10:45.714Z,34.51
2022-12-13T12:13:15.473Z,33.72
2022-12-13T12:15:42.431Z,33.69
2022-12-13T12:18:08.762Z,33.72
2022-12-13T12:20:35.039Z,32.82
2022-12-13T12:23:01.315Z,33.34
2022-12-13T12:25:27.586Z,34.37
2022-12-13T12:27:53.865Z,32.41
2022-12-13T12:30:22.484Z,32.47
2022-12-13T12:32:49.951Z,31.72
2022-12-13T12:35:16.221Z,32.52
2022-12-13T12:37:42.574Z,32.06
2022-12-13T12:40:08.834Z,33.43
2022-12-13T12:42:50.237Z,32.05
2022-12-13T12:45:54.727Z,32.25
2022-12-13T12:50:53.862Z,33.01
2022-12-13T12:53:20.102Z,32.82
2022-12-13T12:55:46.362Z,32.09
2022-12-13T12:58:12.651Z,33.66
2022-12-13T13:00:38.901Z,34.18
2022-12-13T13:03:12.082Z,34.75
2022-12-13T13:05:42.281Z,34.29
2022-12-13T13:08:08.533Z,33.83
2022-12-13T13:10:34.776Z,33.71
2022-12-13T13:13:11.598Z,32.97
2022-12-13T13:15:39.059Z,32.09
2022-12-13T13:18:05.370Z,32.88
2022-12-13T13:20:31.667Z,32.18
2022-12-13T13:23:39.100Z,31.94
2022-12-13T13:26:07.564Z,31.83
2022-12-13T13:28:30.507Z,31.62
2022-12-13T13:30:56.832Z,31.75
2022-12-13T13:33:27.288Z,32.42
2022-12-13T13:35:53.864Z,33.57
2022-12-13T13:38:20.153Z,34.90
2022-12-13T13:40:46.440Z,35.07
2022-12-13T13:43:12.731Z,35.21
2022-12-13T13:45:39.011Z,35.21
2022-12-13T13:48:14.516Z,36.18
2022-12-13T13:50:41.424Z,36.35
2022-12-13T13:53:07.686Z,36.82
2022-12-13T13:55:33.965Z,37.02
2022-12-13T13:58:21.895Z,37.51
2022-12-13T14:00:46.524Z,36.27
2022-12-13T14:03:22.375Z,37.21
2022-12-13T14:05:55.304Z,37.86
2022-12-13T14:08:21.563Z,38.35
2022-12-13T14:10:47.816Z,37.84
2022-12-13T14:13:14.103Z,36.31
2022-12-13T14:15:40.421Z,35.29
2022-12-13T14:18:06.743Z,36.03
2022-12-13T14:20:33.077Z,36.13
2022-12-13T14:22:59.398Z,36.28
2022-12-13T14:25:25.664Z,35.17
2022-12-13T14:27:51.954Z,33.37
2022-12-13T14:30:27.149Z,34.81
2022-12-13T14:32:55.424Z,35.34
2022-12-13T14:35:26.165Z,35.01
2022-12-13T14:37:53.041Z,34.70
2022-12-13T14:40:22.286Z,35.17
2022-12-13T14:42:48.603Z,34.85
2022-12-13T14:45:14.883Z,34.09
2022-12-13T14:47:41.160Z,35.15
2022-12-13T14:50:07.421Z,35.79
2022-12-13T14:52:33.671Z,34.22
2022-12-13T14:54:59.925Z,34.34
2022-12-13T14:57:26.176Z,34.83
2022-12-13T14:59:52.445Z,35.70
2022-12-13T15:02:18.709Z,35.58
2022-12-13T15:04:57.772Z,37.76
2022-12-13T15:07:24.050Z,37.83
2022-12-13T15:09:50.327Z,37.27
2022-12-13T15:12:24.553Z,38.08
2022-12-13T15:14:51.869Z,38.52
2022-12-13T15:17:18.129Z,37.55
2022-12-13T15:19:48.991Z,37.76
2022-12-13T15:22:15.728Z,38.10
2022-12-13T15:24:41.990Z,37.46
2022-12-13T15:27:08.270Z,37.74
2022-12-13T15:29:35.583Z,36.01
2022-12-13T15:32:01.934Z,35.03
2022-12-13T15:34:30.321Z,33.30
2022-12-13T15:36:56.995Z,33.35
2022-12-13T15:39:23.272Z,33.92
2022-12-13T15:41:49.582Z,33.11
2022-12-13T15:44:15.857Z,33.37
2022-12-13T15:46:42.140Z,32.53
2022-12-13T15:49:08.433Z,32.09
2022-12-13T15:51:34.712Z,31.38
2022-12-13T15:54:00.974Z,32.37
2022-12-13T15:56:27.263Z,31.91
2022-12-13T15:58:53.547Z,31.98
2022-12-13T16:01:19.875Z,31.80
2022-12-13T16:03:46.256Z,31.48
2022-12-13T16:06:12.586Z,31.38
2022-12-13T16:08:38.833Z,31.00
2022-12-13T16:11:05.090Z,32.42
2022-12-13T16:13:31.560Z,30.99
2022-12-13T16:15:59.984Z,32.31
2022-12-13T16:18:26.862Z,32.04
2022-12-13T16:20:53.219Z,30.88
2022-12-13T16:23:27.415Z,30.52
2022-12-13T16:25:53.988Z,31.08
2022-12-13T16:28:20.267Z,30.69
2022-12-13T16:30:52.374Z,30.58
2022-12-13T16:33:26.823Z,30.56
2022-12-13T16:35:53.978Z,30.31
2022-12-13T16:38:26.521Z,30.64
2022-12-13T16:40:53.670Z,30.99
2022-12-13T16:43:19.932Z,32.13
2022-12-13T16:45:46.206Z,33.74
2022-12-13T16:48:12.568Z,31.77
2022-12-13T16:50:38.888Z,31.06
2022-12-13T16:53:05.162Z,31.35
2022-12-13T16:55:31.413Z,32.65
2022-12-13T16:57:57.679Z,34.02
2022-12-13T17:00:23.930Z,33.82
2022-12-13T17:02:50.301Z,33.28
2022-12-13T17:05:16.590Z,32.77
2022-12-13T17:07:42.867Z,31.87
2022-12-13T17:10:09.141Z,31.17
2022-12-13T17:12:35.414Z,31.35
2022-12-13T17:15:01.659Z,31.04
2022-12-13T17:17:27.921Z,29.82
2022-12-13T17:19:54.243Z,28.73
2022-12-13T17:22:20.536Z,29.60
2022-12-13T17:24:46.826Z,29.84
2022-12-13T17:27:13.101Z,28.61
2022-12-13T17:29:39.356Z,29.04
2022-12-13T17:32:05.611Z,28.75
2022-12-13T17:34:31.877Z,28.65
2022-12-13T17:36:58.139Z,28.09
2022-12-13T17:39:24.486Z,27.77
2022-12-13T17:41:55.088Z,27.65
2022-12-13T17:44:22.136Z,27.20
2022-12-13T17:46:55.065Z,27.21
2022-12-13T17:49:21.858Z,28.84
2022-12-13T17:51:51.249Z,29.73
2022-12-13T17:54:17.864Z,29.67
2022-12-13T17:56:44.159Z,29.77
2022-12-13T17:59:10.449Z,29.73
2022-12-13T18:01:36.768Z,27.68
2022-12-13T18:04:03.084Z,27.31
2022-12-13T18:06:29.364Z,27.96
2022-12-13T18:08:55.634Z,27.70
2022-12-13T18:11:37.355Z,28.12
2022-12-13T18:14:03.731Z,28.91
2022-12-13T18:16:36.403Z,29.31
2022-12-13T18:19:04.061Z,30.64
2022-12-13T18:21:30.326Z,29.84
2022-12-13T18:23:56.611Z,29.51
2022-12-13T18:26:22.883Z,30.34
2022-12-13T18:28:49.146Z,30.88
2022-12-13T18:31:15.631Z,30.46
2022-12-13T18:33:47.190Z,31.24
2022-12-13T18:36:13.806Z,31.46
2022-12-13T18:38:40.123Z,30.82
2022-12-13T18:41:06.382Z,31.18
2022-12-13T18:43:32.656Z,30.12
2022-12-13T18:45:58.971Z,31.32
2022-12-13T18:48:25.561Z,33.15
2022-12-13T18:50:52.117Z,32.08
2022-12-13T18:53:18.392Z,32.56
2022-12-13T18:55:44.649Z,31.23
2022-12-13T18:58:10.911Z,31.46
2022-12-13T19:00:37.204Z,30.77
2022-12-13T19:03:03.497Z,33.26
2022-12-13T19:05:29.841Z,32.24
2022-12-13T19:07:56.137Z,31.10
2022-12-13T19:10:22.416Z,31.73
2022-12-13T19:12:48.685Z,31.76
2022-12-13T19:15:14.962Z,31.00
2022-12-13T19:17:41.511Z,30.73
2022-12-13T19:20:08.069Z,30.37
2022-12-13T19:22:34.542Z,30.26
2022-12-13T19:25:00.845Z,28.23
2022-12-13T19:27:27.165Z,30.50
2022-12-13T19:29:53.523Z,31.33
2022-12-13T19:32:20.055Z,31.69
2022-12-13T19:34:46.597Z,32.97
2022-12-13T19:37:12.921Z,33.55
2022-12-13T19:39:39.222Z,33.78
2022-12-13T19:42:05.588Z,32.68
2022-12-13T19:44:32.005Z,32.67
2022-12-13T19:46:58.384Z,32.76
2022-12-13T19:49:24.725Z,31.77
2022-12-13T19:51:51.125Z,33.40
2022-12-13T19:54:17.398Z,33.09
2022-12-13T19:56:43.649Z,32.37
2022-12-13T19:59:09.927Z,32.60
2022-12-13T20:01:36.262Z,32.32
2022-12-13T20:04:02.579Z,32.77
2022-12-13T20:06:28.868Z,32.81
2022-12-13T20:08:55.246Z,33.57
2022-12-13T20:11:21.497Z,33.83
2022-12-13T20:13:47.787Z,33.31
2022-12-13T20:16:14.393Z,33.89
2022-12-13T20:18:40.674Z,34.84
2022-12-13T20:21:12.029Z,36.47
2022-12-13T20:23:39.431Z,35.88
2022-12-13T20:26:05.701Z,36.17
2022-12-13T20:28:32.042Z,36.73
2022-12-13T20:30:58.370Z,36.93
2022-12-13T20:33:25.331Z,37.18
2022-12-13T20:36:22.481Z,36.55
2022-12-13T20:38:38.111Z,36.98
2022-12-13T20:41:04.399Z,38.02
2022-12-13T20:43:31.067Z,38.06
2022-12-13T20:45:57.533Z,39.57
2022-12-13T20:48:23.805Z,37.31
2022-12-13T20:50:50.067Z,37.59
2022-12-13T20:53:16.367Z,38.33
2022-12-13T20:55:42.787Z,37.99
2022-12-13T20:58:14.749Z,37.51
2022-12-13T21:00:41.065Z,37.91
2022-12-13T21:03:07.448Z,38.58
2022-12-13T21:05:33.890Z,38.05
2022-12-13T21:08:01.250Z,37.39
2022-12-13T21:10:27.518Z,38.32
2022-12-13T21:12:53.788Z,37.85
2022-12-13T21:15:20.144Z,39.16
2022-12-13T21:17:46.397Z,39.90
2022-12-13T21:20:12.725Z,38.53
2022-12-13T21:22:39.370Z,37.08
2022-12-13T21:25:05.627Z,39.41
2022-12-13T21:27:31.917Z,39.94
2022-12-13T21:29:58.173Z,39.29
2022-12-13T21:32:24.440Z,39.19
2022-12-13T21:34:50.720Z,39.26
2022-12-13T21:37:16.969Z,39.51
2022-12-13T21:39:43.249Z,39.88
2022-12-13T21:42:09.551Z,39.83
2022-12-13T21:44:35.830Z,40.21
2022-12-13T21:47:17.403Z,40.83
2022-12-13T21:49:48.770Z,41.79
2022-12-13T21:52:15.256Z,40.94
2022-12-13T21:54:41.528Z,41.32
2022-12-13T21:57:07.792Z,41.78
2022-12-13T21:59:34.203Z,42.98
2022-12-13T22:02:00.538Z,44.07
2022-12-13T22:04:26.896Z,41.83
2022-12-13T22:06:53.174Z,41.50
2022-12-13T22:09:19.471Z,41.14
2022-12-13T22:11:45.757Z,42.04
2022-12-13T22:14:12.164Z,42.06
2022-12-13T22:16:38.492Z,41.85
2022-12-13T22:19:05.141Z,40.68
2022-12-13T22:21:31.464Z,40.27
2022-12-13T22:23:57.736Z,41.05
2022-12-13T22:26:24.019Z,40.33
2022-12-13T22:28:50.424Z,41.53
2022-12-13T22:31:16.881Z,41.41
2022-12-13T22:33:43.185Z,40.75
2022-12-13T22:36:09.460Z,41.13
2022-12-13T22:38:35.735Z,40.78
2022-12-13T22:41:02.115Z,42.15
2022-12-13T22:43:28.378Z,42.13
2022-12-13T22:45:54.706Z,41.38
2022-12-13T22:48:21.070Z,40.83
2022-12-13T22:50:47.390Z,42.23
2022-12-13T22:53:13.655Z,40.63
2022-12-13T22:55:39.909Z,42.61
2022-12-13T22:58:06.292Z,42.72
2022-12-13T23:00:32.601Z,42.66
2022-12-13T23:02:58.940Z,42.60
2022-12-13T23:05:25.219Z,41.92
2022-12-13T23:07:51.761Z,43.88
2022-12-13T23:10:18.072Z,44.50
2022-12-13T23:12:44.315Z,44.56
2022-12-13T23:15:10.578Z,44.32
2022-12-13T23:17:36.835Z,43.42
2022-12-13T23:20:03.273Z,44.09
2022-12-13T23:22:29.594Z,44.29
2022-12-13T23:24:55.842Z,46.44
2022-12-13T23:27:22.095Z,46.10
2022-12-13T23:29:48.432Z,46.50
2022-12-13T23:32:14.779Z,46.00
2022-12-13T23:34:41.029Z,45.57
2022-12-13T23:37:07.336Z,45.25
2022-12-13T23:39:33.583Z,45.19
2022-12-13T23:41:59.856Z,43.20
2022-12-13T23:44:26.095Z,43.31
2022-12-13T23:46:52.342Z,43.40
2022-12-13T23:49:18.968Z,43.52
2022-12-13T23:51:45.232Z,44.84
2022-12-13T23:54:11.499Z,44.02
2022-12-13T23:56:37.829Z,45.65
2022-12-13T23:59:04.132Z,46.88
